TAM5541 SBCT-SBRJ
Flight info
| Callsign | TAM5541 |
|---|---|
| Flight time | N/A |
| Altitude | 37000 |
| Route | EDVEB UM548 KOXAG UM400 KOLBI |
| Aircraft | A319/M-SDE3FGHIRWY/LB1 |
Departure
| Time | 2026-04-28 02:31 |
|---|---|
| Airport | Curitiba-Afonso Pena International Airport (SBCT) |
Arrival
| Time | N/A |
|---|---|
| Airport | Santos Dumont Airport (SBRJ) |
| Time | Latitude | Longitude | Altitude | Speed | Heading |
|---|---|---|---|---|---|
| 2026-04-28 02:17 | -25.53768 | -49.17003 | 2993 ft | 0 kts | 224° |
| 2026-04-28 02:21 | -25.53753 | -49.16988 | 2993 ft | 4 kts | 224° |
| 2026-04-28 02:21 | -25.53735 | -49.16966 | 2993 ft | 4 kts | 237° |
| 2026-04-28 02:22 | -25.53726 | -49.16942 | 2991 ft | 4 kts | 293° |
| 2026-04-28 02:22 | -25.53738 | -49.16925 | 2991 ft | 2 kts | 315° |
| 2026-04-28 02:22 | -25.53740 | -49.16923 | 2991 ft | 0 kts | 315° |
| 2026-04-28 02:24 | -25.53735 | -49.16929 | 2991 ft | 3 kts | 314° |
| 2026-04-28 02:24 | -25.53690 | -49.16979 | 2990 ft | 15 kts | 315° |
| 2026-04-28 02:24 | -25.53594 | -49.16967 | 2990 ft | 12 kts | 347° |
| 2026-04-28 02:25 | -25.53519 | -49.17051 | 2991 ft | 19 kts | 314° |
| 2026-04-28 02:25 | -25.53408 | -49.17176 | 2991 ft | 26 kts | 315° |
| 2026-04-28 02:25 | -25.53281 | -49.17321 | 2994 ft | 27 kts | 310° |
| 2026-04-28 02:25 | -25.53170 | -49.17439 | 2992 ft | 29 kts | 315° |
| 2026-04-28 02:26 | -25.53030 | -49.17596 | 2990 ft | 25 kts | 314° |
| 2026-04-28 02:26 | -25.52978 | -49.17763 | 2986 ft | 25 kts | 271° |
| 2026-04-28 02:26 | -25.52920 | -49.17931 | 2985 ft | 25 kts | 316° |
| 2026-04-28 02:26 | -25.52768 | -49.17994 | 2985 ft | 25 kts | 357° |
| 2026-04-28 02:27 | -25.52715 | -49.17997 | 2987 ft | 20 kts | 357° |
| 2026-04-28 02:27 | -25.52668 | -49.17999 | 2989 ft | 15 kts | 357° |
| 2026-04-28 02:27 | -25.52601 | -49.18002 | 2991 ft | 14 kts | 357° |
| 2026-04-28 02:28 | -25.52598 | -49.18003 | 2991 ft | 14 kts | 357° |
| 2026-04-28 02:28 | -25.52527 | -49.18006 | 2992 ft | 11 kts | 357° |
| 2026-04-28 02:28 | -25.52446 | -49.18026 | 2993 ft | 13 kts | 320° |
| 2026-04-28 02:29 | -25.52377 | -49.18103 | 2994 ft | 15 kts | 315° |
| 2026-04-28 02:29 | -25.52299 | -49.18186 | 2997 ft | 17 kts | 315° |
| 2026-04-28 02:29 | -25.52222 | -49.18265 | 2995 ft | 15 kts | 243° |
| 2026-04-28 02:29 | -25.52259 | -49.18239 | 2996 ft | 8 kts | 118° |
| 2026-04-28 02:30 | -25.52294 | -49.18194 | 2997 ft | 8 kts | 132° |
| 2026-04-28 02:30 | -25.52348 | -49.18132 | 2996 ft | 20 kts | 134° |
| 2026-04-28 02:30 | -25.52602 | -49.17850 | 2989 ft | 79 kts | 135° |
| 2026-04-28 02:30 | -25.53114 | -49.17275 | 2994 ft | 135 kts | 134° |
| 2026-04-28 02:31 | -25.53853 | -49.16449 | 3245 ft | 163 kts | 135° |
| 2026-04-28 02:31 | -25.54689 | -49.15523 | 3811 ft | 175 kts | 134° |
| 2026-04-28 02:31 | -25.55456 | -49.14484 | 4516 ft | 181 kts | 114° |
| 2026-04-28 02:31 | -25.55597 | -49.13025 | 4834 ft | 205 kts | 87° |
| 2026-04-28 02:32 | -25.55441 | -49.11349 | 5126 ft | 232 kts | 83° |
| 2026-04-28 02:32 | -25.55213 | -49.09485 | 5583 ft | 256 kts | 83° |
| 2026-04-28 02:32 | -25.54970 | -49.07445 | 6178 ft | 275 kts | 83° |
| 2026-04-28 02:32 | -25.54738 | -49.05311 | 6971 ft | 283 kts | 83° |
| 2026-04-28 02:33 | -25.54516 | -49.03122 | 7827 ft | 289 kts | 84° |
| 2026-04-28 02:33 | -25.54309 | -49.00887 | 8661 ft | 294 kts | 84° |
| 2026-04-28 02:33 | -25.54109 | -48.98616 | 9473 ft | 299 kts | 84° |
| 2026-04-28 02:33 | -25.53912 | -48.96294 | 10203 ft | 308 kts | 84° |
| 2026-04-28 02:34 | -25.53706 | -48.93842 | 10498 ft | 331 kts | 84° |
| 2026-04-28 02:34 | -25.53281 | -48.91258 | 10865 ft | 348 kts | 75° |
| 2026-04-28 02:34 | -25.52696 | -48.88629 | 11479 ft | 356 kts | 74° |
| 2026-04-28 02:34 | -25.52106 | -48.85943 | 12117 ft | 363 kts | 74° |
| 2026-04-28 02:35 | -25.51512 | -48.83209 | 12782 ft | 369 kts | 74° |
| 2026-04-28 02:35 | -25.50909 | -48.80429 | 13448 ft | 374 kts | 74° |
| 2026-04-28 02:35 | -25.50297 | -48.77616 | 14118 ft | 378 kts | 73° |
| 2026-04-28 02:35 | -25.49675 | -48.74772 | 14762 ft | 383 kts | 73° |
| 2026-04-28 02:36 | -25.49040 | -48.71889 | 15393 ft | 388 kts | 73° |
| 2026-04-28 02:36 | -25.48395 | -48.68972 | 16007 ft | 392 kts | 73° |
| 2026-04-28 02:36 | -25.47743 | -48.66026 | 16605 ft | 396 kts | 73° |
| 2026-04-28 02:36 | -25.47086 | -48.63052 | 17183 ft | 401 kts | 73° |
| 2026-04-28 02:37 | -25.46420 | -48.60039 | 17752 ft | 404 kts | 72° |
| 2026-04-28 02:37 | -25.45748 | -48.57004 | 18316 ft | 408 kts | 72° |
| 2026-04-28 02:37 | -25.45067 | -48.53933 | 18856 ft | 412 kts | 72° |
| 2026-04-28 02:37 | -25.44387 | -48.50882 | 19373 ft | 417 kts | 72° |
| 2026-04-28 02:38 | -25.43684 | -48.47749 | 19886 ft | 422 kts | 72° |
| 2026-04-28 02:38 | -25.42977 | -48.44584 | 20425 ft | 425 kts | 72° |
| 2026-04-28 02:38 | -25.42267 | -48.41390 | 20945 ft | 429 kts | 72° |
| 2026-04-28 02:38 | -25.41552 | -48.38169 | 21429 ft | 433 kts | 72° |
| 2026-04-28 02:39 | -25.40828 | -48.34914 | 21891 ft | 437 kts | 72° |
| 2026-04-28 02:39 | -25.40098 | -48.31640 | 22340 ft | 441 kts | 72° |
| 2026-04-28 02:39 | -25.39358 | -48.28326 | 22788 ft | 444 kts | 72° |
| 2026-04-28 02:39 | -25.38614 | -48.24994 | 23215 ft | 448 kts | 72° |
| 2026-04-28 02:40 | -25.37862 | -48.21640 | 23655 ft | 452 kts | 71° |
| 2026-04-28 02:40 | -25.37100 | -48.18256 | 24061 ft | 455 kts | 71° |
| 2026-04-28 02:40 | -25.36329 | -48.14838 | 24458 ft | 459 kts | 71° |
| 2026-04-28 02:40 | -25.35555 | -48.11403 | 24874 ft | 461 kts | 71° |
| 2026-04-28 02:41 | -25.34778 | -48.07956 | 25290 ft | 464 kts | 71° |
| 2026-04-28 02:41 | -25.34006 | -48.04535 | 25687 ft | 466 kts | 71° |
| 2026-04-28 02:41 | -25.33220 | -48.01049 | 26087 ft | 468 kts | 71° |
| 2026-04-28 02:41 | -25.32433 | -47.97545 | 26476 ft | 471 kts | 72° |
| 2026-04-28 02:42 | -25.31706 | -47.94003 | 26868 ft | 474 kts | 73° |
| 2026-04-28 02:42 | -25.31054 | -47.90429 | 27256 ft | 477 kts | 75° |
| 2026-04-28 02:42 | -25.30442 | -47.86816 | 27612 ft | 479 kts | 75° |
| 2026-04-28 02:42 | -25.29839 | -47.83179 | 27965 ft | 482 kts | 76° |
| 2026-04-28 02:43 | -25.29229 | -47.79533 | 28318 ft | 484 kts | 75° |
| 2026-04-28 02:43 | -25.28599 | -47.75876 | 28676 ft | 486 kts | 75° |
| 2026-04-28 02:43 | -25.27946 | -47.72201 | 29027 ft | 488 kts | 74° |
| 2026-04-28 02:43 | -25.27274 | -47.68515 | 29375 ft | 490 kts | 74° |
| 2026-04-28 02:44 | -25.26592 | -47.64821 | 29716 ft | 492 kts | 74° |
| 2026-04-28 02:44 | -25.25909 | -47.61107 | 30059 ft | 495 kts | 74° |
| 2026-04-28 02:44 | -25.25227 | -47.57374 | 30399 ft | 497 kts | 74° |
| 2026-04-28 02:44 | -25.24546 | -47.53626 | 30724 ft | 499 kts | 75° |
| 2026-04-28 02:45 | -25.23865 | -47.49862 | 31043 ft | 501 kts | 75° |
| 2026-04-28 02:45 | -25.23182 | -47.46088 | 31349 ft | 503 kts | 75° |
| 2026-04-28 02:45 | -25.22489 | -47.42283 | 31649 ft | 505 kts | 75° |
| 2026-04-28 02:45 | -25.21796 | -47.38476 | 31993 ft | 506 kts | 75° |
| 2026-04-28 02:46 | -25.21105 | -47.34681 | 32430 ft | 504 kts | 74° |
| 2026-04-28 02:46 | -25.20410 | -47.30887 | 32868 ft | 503 kts | 74° |
| 2026-04-28 02:46 | -25.19724 | -47.27158 | 33282 ft | 502 kts | 74° |
| 2026-04-28 02:46 | -25.19031 | -47.23391 | 33698 ft | 501 kts | 74° |
| 2026-04-28 02:47 | -25.18340 | -47.19623 | 34115 ft | 499 kts | 74° |
| 2026-04-28 02:47 | -25.17652 | -47.15879 | 34525 ft | 498 kts | 74° |
| 2026-04-28 02:47 | -25.16961 | -47.12135 | 34892 ft | 498 kts | 74° |
| 2026-04-28 02:47 | -25.16272 | -47.08403 | 35257 ft | 497 kts | 74° |
| 2026-04-28 02:48 | -25.15576 | -47.04654 | 35601 ft | 497 kts | 74° |
| 2026-04-28 02:48 | -25.14879 | -47.00926 | 35916 ft | 497 kts | 73° |
| 2026-04-28 02:48 | -25.13925 | -46.97277 | 36249 ft | 491 kts | 64° |
| 2026-04-28 02:48 | -25.12540 | -46.93869 | 36566 ft | 486 kts | 58° |
| 2026-04-28 02:49 | -25.11052 | -46.90518 | 36849 ft | 486 kts | 58° |
| 2026-04-28 02:49 | -25.09567 | -46.87186 | 37094 ft | 486 kts | 58° |
| 2026-04-28 02:49 | -25.08076 | -46.83838 | 37139 ft | 483 kts | 58° |
| 2026-04-28 02:50 | -25.05133 | -46.77227 | 37137 ft | 477 kts | 58° |
| 2026-04-28 02:50 | -25.02237 | -46.70715 | 37138 ft | 476 kts | 58° |
| 2026-04-28 02:51 | -24.99315 | -46.64167 | 37146 ft | 476 kts | 58° |
| 2026-04-28 02:51 | -24.96386 | -46.57619 | 37152 ft | 475 kts | 58° |
| 2026-04-28 02:52 | -24.93459 | -46.51081 | 37161 ft | 475 kts | 58° |
| 2026-04-28 02:52 | -24.90536 | -46.44547 | 37160 ft | 475 kts | 58° |
| 2026-04-28 02:53 | -24.87610 | -46.38021 | 37162 ft | 475 kts | 58° |
| 2026-04-28 02:53 | -24.84688 | -46.31510 | 37157 ft | 474 kts | 58° |
| 2026-04-28 02:54 | -24.81759 | -46.25006 | 37157 ft | 474 kts | 58° |
| 2026-04-28 02:54 | -24.78815 | -46.18491 | 37147 ft | 479 kts | 58° |
| 2026-04-28 02:55 | -24.75830 | -46.11892 | 37148 ft | 491 kts | 58° |
| 2026-04-28 02:55 | -24.73263 | -46.06214 | 37145 ft | 497 kts | 58° |
| 2026-04-28 02:56 | -24.70192 | -45.99384 | 37148 ft | 498 kts | 58° |
| 2026-04-28 02:56 | -24.67134 | -45.92616 | 37145 ft | 497 kts | 58° |
| 2026-04-28 02:57 | -24.64049 | -45.85837 | 37148 ft | 496 kts | 58° |
| 2026-04-28 02:57 | -24.60959 | -45.79052 | 37144 ft | 496 kts | 58° |
| 2026-04-28 02:58 | -24.57876 | -45.72265 | 37139 ft | 496 kts | 58° |
| 2026-04-28 02:58 | -24.54785 | -45.65484 | 37139 ft | 496 kts | 58° |
| 2026-04-28 02:59 | -24.51686 | -45.58712 | 37132 ft | 496 kts | 58° |
| 2026-04-28 02:59 | -24.48583 | -45.51938 | 37124 ft | 496 kts | 58° |
| 2026-04-28 03:00 | -24.45486 | -45.45165 | 37116 ft | 496 kts | 58° |
| 2026-04-28 03:00 | -24.42388 | -45.38398 | 37109 ft | 496 kts | 58° |
| 2026-04-28 03:01 | -24.39285 | -45.31629 | 37113 ft | 497 kts | 58° |
| 2026-04-28 03:01 | -24.36172 | -45.24874 | 37108 ft | 496 kts | 58° |
| 2026-04-28 03:02 | -24.33047 | -45.18108 | 37085 ft | 497 kts | 58° |
| 2026-04-28 03:02 | -24.29930 | -45.11332 | 37090 ft | 498 kts | 58° |
| 2026-04-28 03:03 | -24.26804 | -45.04554 | 37100 ft | 499 kts | 58° |
| 2026-04-28 03:03 | -24.23690 | -44.97825 | 37097 ft | 498 kts | 58° |
| 2026-04-28 03:04 | -24.20546 | -44.91048 | 37103 ft | 498 kts | 58° |
| 2026-04-28 03:04 | -24.17407 | -44.84277 | 37102 ft | 498 kts | 58° |